sensor_id;sensor_type;location;lat;lon;timestamp;temperature;humidity
70867;HTU21D;58487;53.474;49.470;2022-08-25T00:00:30;20.65;74.45
70867;HTU21D;58487;53.474;49.470;2022-08-25T00:03:01;20.58;70.16
70867;HTU21D;58487;53.474;49.470;2022-08-25T00:05:32;20.55;79.92
70867;HTU21D;58487;53.474;49.470;2022-08-25T00:08:04;20.58;68.58
70867;HTU21D;58487;53.474;49.470;2022-08-25T00:10:37;20.56;70.16
70867;HTU21D;58487;53.474;49.470;2022-08-25T00:13:09;20.61;76.05
70867;HTU21D;58487;53.474;49.470;2022-08-25T00:15:40;20.57;84.89
70867;HTU21D;58487;53.474;49.470;2022-08-25T00:18:11;20.57;82.91
70867;HTU21D;58487;53.474;49.470;2022-08-25T00:20:43;20.57;76.38
70867;HTU21D;58487;53.474;49.470;2022-08-25T00:23:14;20.57;69.28
70867;HTU21D;58487;53.474;49.470;2022-08-25T00:25:45;20.54;83.42
70867;HTU21D;58487;53.474;49.470;2022-08-25T00:28:17;20.51;72.99
70867;HTU21D;58487;53.474;49.470;2022-08-25T00:30:49;20.55;71.54
70867;HTU21D;58487;53.474;49.470;2022-08-25T00:33:21;20.47;78.01
70867;HTU21D;58487;53.474;49.470;2022-08-25T00:35:52;20.37;76.73
70867;HTU21D;58487;53.474;49.470;2022-08-25T00:38:25;20.29;70.16
70867;HTU21D;58487;53.474;49.470;2022-08-25T00:40:57;20.34;71.83
70867;HTU21D;58487;53.474;49.470;2022-08-25T00:46:16;20.30;70.55
70867;HTU21D;58487;53.474;49.470;2022-08-25T00:48:52;20.26;80.87
70867;HTU21D;58487;53.474;49.470;2022-08-25T00:51:34;20.22;74.70
70867;HTU21D;58487;53.474;49.470;2022-08-25T00:54:07;20.18;82.53
70867;HTU21D;58487;53.474;49.470;2022-08-25T00:56:40;20.22;79.08
70867;HTU21D;58487;53.474;49.470;2022-08-25T00:59:13;20.30;77.84
70867;HTU21D;58487;53.474;49.470;2022-08-25T01:01:45;20.28;83.23
70867;HTU21D;58487;53.474;49.470;2022-08-25T01:04:16;20.30;74.78
70867;HTU21D;58487;53.474;49.470;2022-08-25T01:06:48;20.29;77.39
70867;HTU21D;58487;53.474;49.470;2022-08-25T01:09:20;20.28;76.84
70867;HTU21D;58487;53.474;49.470;2022-08-25T01:11:51;20.28;80.13
70867;HTU21D;58487;53.474;49.470;2022-08-25T01:14:23;20.15;84.29
70867;HTU21D;58487;53.474;49.470;2022-08-25T01:16:55;20.18;79.79
70867;HTU21D;58487;53.474;49.470;2022-08-25T01:19:28;20.12;81.25
70867;HTU21D;58487;53.474;49.470;2022-08-25T01:22:00;20.07;83.31
70867;HTU21D;58487;53.474;49.470;2022-08-25T01:24:39;20.05;75.02
70867;HTU21D;58487;53.474;49.470;2022-08-25T01:27:12;20.02;73.94
70867;HTU21D;58487;53.474;49.470;2022-08-25T01:29:43;19.94;80.06
70867;HTU21D;58487;53.474;49.470;2022-08-25T01:32:15;19.72;76.82
70867;HTU21D;58487;53.474;49.470;2022-08-25T01:34:46;19.59;74.54
70867;HTU21D;58487;53.474;49.470;2022-08-25T01:37:17;19.62;79.20
70867;HTU21D;58487;53.474;49.470;2022-08-25T01:39:49;19.63;81.39
70867;HTU21D;58487;53.474;49.470;2022-08-25T01:44:59;19.72;79.44
70867;HTU21D;58487;53.474;49.470;2022-08-25T01:47:31;19.76;79.50
70867;HTU21D;58487;53.474;49.470;2022-08-25T01:50:04;19.75;83.76
70867;HTU21D;58487;53.474;49.470;2022-08-25T01:55:15;19.62;81.30
70867;HTU21D;58487;53.474;49.470;2022-08-25T01:57:47;19.59;76.78
70867;HTU21D;58487;53.474;49.470;2022-08-25T02:00:19;19.66;76.42
70867;HTU21D;58487;53.474;49.470;2022-08-25T02:02:51;19.61;79.17
70867;HTU21D;58487;53.474;49.470;2022-08-25T02:05:22;19.61;75.76
70867;HTU21D;58487;53.474;49.470;2022-08-25T02:07:53;19.48;78.11
70867;HTU21D;58487;53.474;49.470;2022-08-25T02:10:24;19.54;83.93
70867;HTU21D;58487;53.474;49.470;2022-08-25T02:12:56;19.65;80.05
70867;HTU21D;58487;53.474;49.470;2022-08-25T02:15:27;19.71;81.28
70867;HTU21D;58487;53.474;49.470;2022-08-25T02:17:58;19.66;77.20
70867;HTU21D;58487;53.474;49.470;2022-08-25T02:20:29;19.61;82.58
70867;HTU21D;58487;53.474;49.470;2022-08-25T02:23:01;19.60;76.48
70867;HTU21D;58487;53.474;49.470;2022-08-25T02:25:32;19.66;77.82
70867;HTU21D;58487;53.474;49.470;2022-08-25T02:28:04;19.59;88.31
70867;HTU21D;58487;53.474;49.470;2022-08-25T02:30:38;19.54;90.87
70867;HTU21D;58487;53.474;49.470;2022-08-25T02:33:10;19.42;80.13
70867;HTU21D;58487;53.474;49.470;2022-08-25T02:35:41;19.50;76.37
70867;HTU21D;58487;53.474;49.470;2022-08-25T02:38:12;19.57;82.62
70867;HTU21D;58487;53.474;49.470;2022-08-25T02:40:44;19.59;85.61
70867;HTU21D;58487;53.474;49.470;2022-08-25T02:43:15;19.57;87.11
70867;HTU21D;58487;53.474;49.470;2022-08-25T02:45:46;19.65;93.17
70867;HTU21D;58487;53.474;49.470;2022-08-25T02:48:17;19.77;92.12
70867;HTU21D;58487;53.474;49.470;2022-08-25T02:50:51;19.81;91.59
70867;HTU21D;58487;53.474;49.470;2022-08-25T02:53:22;19.89;82.12
70867;HTU21D;58487;53.474;49.470;2022-08-25T02:55:54;19.89;90.66
70867;HTU21D;58487;53.474;49.470;2022-08-25T02:58:26;20.01;92.40
70867;HTU21D;58487;53.474;49.470;2022-08-25T03:00:57;19.92;98.58
70867;HTU21D;58487;53.474;49.470;2022-08-25T03:03:28;19.88;95.01
70867;HTU21D;58487;53.474;49.470;2022-08-25T03:06:00;19.75;103.41
70867;HTU21D;58487;53.474;49.470;2022-08-25T03:08:32;19.74;102.59
70867;HTU21D;58487;53.474;49.470;2022-08-25T03:11:04;19.80;99.03
70867;HTU21D;58487;53.474;49.470;2022-08-25T03:13:36;19.88;96.68
70867;HTU21D;58487;53.474;49.470;2022-08-25T03:16:07;19.90;103.80
70867;HTU21D;58487;53.474;49.470;2022-08-25T03:18:40;20.00;106.88
70867;HTU21D;58487;53.474;49.470;2022-08-25T03:21:11;20.15;100.98
70867;HTU21D;58487;53.474;49.470;2022-08-25T03:23:43;20.18;103.41
70867;HTU21D;58487;53.474;49.470;2022-08-25T03:26:15;20.26;113.61
70867;HTU21D;58487;53.474;49.470;2022-08-25T03:29:04;20.37;102.11
70867;HTU21D;58487;53.474;49.470;2022-08-25T03:31:36;20.46;91.41
70867;HTU21D;58487;53.474;49.470;2022-08-25T03:34:08;20.49;95.20
70867;HTU21D;58487;53.474;49.470;2022-08-25T03:36:39;20.54;95.32
70867;HTU21D;58487;53.474;49.470;2022-08-25T03:39:11;20.55;99.49
70867;HTU21D;58487;53.474;49.470;2022-08-25T03:41:43;20.68;100.24
70867;HTU21D;58487;53.474;49.470;2022-08-25T03:44:15;20.76;94.57
70867;HTU21D;58487;53.474;49.470;2022-08-25T03:46:49;20.83;104.95
70867;HTU21D;58487;53.474;49.470;2022-08-25T03:49:22;20.74;104.85
70867;HTU21D;58487;53.474;49.470;2022-08-25T03:51:54;20.71;105.52
70867;HTU21D;58487;53.474;49.470;2022-08-25T03:54:25;20.77;97.07
70867;HTU21D;58487;53.474;49.470;2022-08-25T03:56:56;20.75;98.68
70867;HTU21D;58487;53.474;49.470;2022-08-25T03:59:27;20.88;92.60
70867;HTU21D;58487;53.474;49.470;2022-08-25T04:01:59;20.94;103.09
70867;HTU21D;58487;53.474;49.470;2022-08-25T04:04:31;21.02;98.88
70867;HTU21D;58487;53.474;49.470;2022-08-25T04:07:03;21.15;99.57
70867;HTU21D;58487;53.474;49.470;2022-08-25T04:09:34;21.18;94.62
70867;HTU21D;58487;53.474;49.470;2022-08-25T04:12:06;21.25;103.17
70867;HTU21D;58487;53.474;49.470;2022-08-25T04:14:37;21.28;95.08
70867;HTU21D;58487;53.474;49.470;2022-08-25T04:17:08;21.46;86.21
70867;HTU21D;58487;53.474;49.470;2022-08-25T04:19:39;21.45;90.67
70867;HTU21D;58487;53.474;49.470;2022-08-25T04:22:11;21.58;91.82
70867;HTU21D;58487;53.474;49.470;2022-08-25T04:24:42;21.67;87.32
70867;HTU21D;58487;53.474;49.470;2022-08-25T04:27:14;21.59;95.39
70867;HTU21D;58487;53.474;49.470;2022-08-25T04:29:45;21.54;90.07
70867;HTU21D;58487;53.474;49.470;2022-08-25T04:32:16;21.66;98.87
70867;HTU21D;58487;53.474;49.470;2022-08-25T04:34:47;21.70;96.87
70867;HTU21D;58487;53.474;49.470;2022-08-25T04:37:19;21.70;97.39
70867;HTU21D;58487;53.474;49.470;2022-08-25T04:39:50;21.81;97.08
70867;HTU21D;58487;53.474;49.470;2022-08-25T04:42:21;21.95;94.80
70867;HTU21D;58487;53.474;49.470;2022-08-25T04:44:52;22.06;93.97
70867;HTU21D;58487;53.474;49.470;2022-08-25T04:47:24;22.27;95.84
70867;HTU21D;58487;53.474;49.470;2022-08-25T04:49:56;22.42;88.17
70867;HTU21D;58487;53.474;49.470;2022-08-25T04:52:27;22.50;91.92
70867;HTU21D;58487;53.474;49.470;2022-08-25T04:54:58;22.61;86.67
70867;HTU21D;58487;53.474;49.470;2022-08-25T04:57:30;22.65;83.50
70867;HTU21D;58487;53.474;49.470;2022-08-25T05:00:01;22.61;85.85
70867;HTU21D;58487;53.474;49.470;2022-08-25T05:02:32;22.67;82.36
70867;HTU21D;58487;53.474;49.470;2022-08-25T05:05:04;22.85;85.86
70867;HTU21D;58487;53.474;49.470;2022-08-25T05:07:36;23.01;89.79
70867;HTU21D;58487;53.474;49.470;2022-08-25T05:10:08;23.12;88.83
70867;HTU21D;58487;53.474;49.470;2022-08-25T05:12:39;23.24;87.11
70867;HTU21D;58487;53.474;49.470;2022-08-25T05:15:11;23.37;84.62
70867;HTU21D;58487;53.474;49.470;2022-08-25T05:18:01;23.28;87.04
70867;HTU21D;58487;53.474;49.470;2022-08-25T05:20:35;23.25;95.06
70867;HTU21D;58487;53.474;49.470;2022-08-25T05:23:07;23.24;86.63
70867;HTU21D;58487;53.474;49.470;2022-08-25T05:25:38;23.28;83.78
70867;HTU21D;58487;53.474;49.470;2022-08-25T05:28:10;23.15;82.42
70867;HTU21D;58487;53.474;49.470;2022-08-25T05:30:42;22.96;99.16
70867;HTU21D;58487;53.474;49.470;2022-08-25T05:33:13;22.79;96.30
70867;HTU21D;58487;53.474;49.470;2022-08-25T05:35:46;22.84;96.57
70867;HTU21D;58487;53.474;49.470;2022-08-25T05:38:17;22.77;92.67
70867;HTU21D;58487;53.474;49.470;2022-08-25T05:41:02;22.91;95.35
70867;HTU21D;58487;53.474;49.470;2022-08-25T05:43:36;22.83;91.83
70867;HTU21D;58487;53.474;49.470;2022-08-25T05:46:08;22.87;103.44
70867;HTU21D;58487;53.474;49.470;2022-08-25T05:48:40;22.96;97.59
70867;HTU21D;58487;53.474;49.470;2022-08-25T05:51:13;22.92;98.39
70867;HTU21D;58487;53.474;49.470;2022-08-25T05:53:46;23.03;100.73
70867;HTU21D;58487;53.474;49.470;2022-08-25T05:56:18;23.18;95.59
70867;HTU21D;58487;53.474;49.470;2022-08-25T05:58:50;23.38;92.99
70867;HTU21D;58487;53.474;49.470;2022-08-25T06:01:24;23.44;95.10
70867;HTU21D;58487;53.474;49.470;2022-08-25T06:04:15;23.52;97.75
70867;HTU21D;58487;53.474;49.470;2022-08-25T06:06:47;23.47;99.84
70867;HTU21D;58487;53.474;49.470;2022-08-25T06:09:23;23.65;93.27
70867;HTU21D;58487;53.474;49.470;2022-08-25T06:11:54;23.76;92.72
70867;HTU21D;58487;53.474;49.470;2022-08-25T06:14:25;23.82;95.94
70867;HTU21D;58487;53.474;49.470;2022-08-25T06:16:57;23.84;93.21
70867;HTU21D;58487;53.474;49.470;2022-08-25T06:19:30;23.77;98.51
70867;HTU21D;58487;53.474;49.470;2022-08-25T06:22:01;23.90;94.29
70867;HTU21D;58487;53.474;49.470;2022-08-25T06:24:32;23.95;90.51
70867;HTU21D;58487;53.474;49.470;2022-08-25T06:27:04;24.12;88.08
70867;HTU21D;58487;53.474;49.470;2022-08-25T06:29:35;23.99;91.25
70867;HTU21D;58487;53.474;49.470;2022-08-25T06:32:06;23.77;93.86
70867;HTU21D;58487;53.474;49.470;2022-08-25T06:34:38;23.88;91.32
70867;HTU21D;58487;53.474;49.470;2022-08-25T06:37:10;23.77;96.62
70867;HTU21D;58487;53.474;49.470;2022-08-25T06:39:41;23.77;95.50
70867;HTU21D;58487;53.474;49.470;2022-08-25T06:42:12;23.94;92.32
70867;HTU21D;58487;53.474;49.470;2022-08-25T06:44:44;24.12;94.75
70867;HTU21D;58487;53.474;49.470;2022-08-25T06:47:16;24.23;87.27
70867;HTU21D;58487;53.474;49.470;2022-08-25T06:49:48;24.19;89.92
70867;HTU21D;58487;53.474;49.470;2022-08-25T06:52:19;24.27;90.43
70867;HTU21D;58487;53.474;49.470;2022-08-25T06:54:50;24.45;87.29
70867;HTU21D;58487;53.474;49.470;2022-08-25T06:57:23;24.57;89.97
70867;HTU21D;58487;53.474;49.470;2022-08-25T06:59:54;24.62;87.26
70867;HTU21D;58487;53.474;49.470;2022-08-25T07:02:25;24.78;85.45
70867;HTU21D;58487;53.474;49.470;2022-08-25T07:04:56;24.84;93.96
70867;HTU21D;58487;53.474;49.470;2022-08-25T07:07:28;24.89;88.18
70867;HTU21D;58487;53.474;49.470;2022-08-25T07:09:59;25.06;87.22
70867;HTU21D;58487;53.474;49.470;2022-08-25T07:12:30;25.19;92.70
70867;HTU21D;58487;53.474;49.470;2022-08-25T07:15:02;25.23;91.82
70867;HTU21D;58487;53.474;49.470;2022-08-25T07:17:33;25.30;88.12
70867;HTU21D;58487;53.474;49.470;2022-08-25T07:20:05;25.34;89.22
70867;HTU21D;58487;53.474;49.470;2022-08-25T07:22:36;25.42;96.14
70867;HTU21D;58487;53.474;49.470;2022-08-25T07:25:08;25.53;90.69
70867;HTU21D;58487;53.474;49.470;2022-08-25T07:27:41;25.59;93.51
70867;HTU21D;58487;53.474;49.470;2022-08-25T07:30:12;25.62;92.84
70867;HTU21D;58487;53.474;49.470;2022-08-25T07:32:44;25.71;90.17
70867;HTU21D;58487;53.474;49.470;2022-08-25T07:35:15;25.87;86.69
70867;HTU21D;58487;53.474;49.470;2022-08-25T07:37:53;26.04;88.06
70867;HTU21D;58487;53.474;49.470;2022-08-25T07:40:30;26.20;88.71
70867;HTU21D;58487;53.474;49.470;2022-08-25T07:43:05;26.47;81.46
70867;HTU21D;58487;53.474;49.470;2022-08-25T07:45:38;26.60;83.90
70867;HTU21D;58487;53.474;49.470;2022-08-25T07:48:10;26.60;83.24
70867;HTU21D;58487;53.474;49.470;2022-08-25T07:50:43;26.73;86.87
70867;HTU21D;58487;53.474;49.470;2022-08-25T07:53:16;26.72;83.91
70867;HTU21D;58487;53.474;49.470;2022-08-25T07:55:47;26.69;85.41
70867;HTU21D;58487;53.474;49.470;2022-08-25T07:58:18;26.72;92.46
70867;HTU21D;58487;53.474;49.470;2022-08-25T08:00:50;26.75;89.29
70867;HTU21D;58487;53.474;49.470;2022-08-25T08:03:23;26.85;86.78
70867;HTU21D;58487;53.474;49.470;2022-08-25T08:05:54;26.93;87.59
70867;HTU21D;58487;53.474;49.470;2022-08-25T08:08:27;27.08;81.38
70867;HTU21D;58487;53.474;49.470;2022-08-25T08:10:58;27.23;85.23
70867;HTU21D;58487;53.474;49.470;2022-08-25T08:13:31;27.35;74.05
70867;HTU21D;58487;53.474;49.470;2022-08-25T08:16:07;27.35;79.04
70867;HTU21D;58487;53.474;49.470;2022-08-25T08:18:40;27.31;85.41
70867;HTU21D;58487;53.474;49.470;2022-08-25T08:21:15;27.49;85.38
70867;HTU21D;58487;53.474;49.470;2022-08-25T08:23:48;27.34;89.99
70867;HTU21D;58487;53.474;49.470;2022-08-25T08:26:20;27.29;86.28
70867;HTU21D;58487;53.474;49.470;2022-08-25T08:28:52;27.34;82.07
70867;HTU21D;58487;53.474;49.470;2022-08-25T08:31:24;27.45;79.67
70867;HTU21D;58487;53.474;49.470;2022-08-25T08:33:57;27.50;78.32
70867;HTU21D;58487;53.474;49.470;2022-08-25T08:36:28;27.49;81.54
70867;HTU21D;58487;53.474;49.470;2022-08-25T08:38:59;27.57;83.15
70867;HTU21D;58487;53.474;49.470;2022-08-25T08:41:53;27.67;83.76
70867;HTU21D;58487;53.474;49.470;2022-08-25T08:47:53;27.74;83.65
70867;HTU21D;58487;53.474;49.470;2022-08-25T08:53:24;27.81;88.84
70867;HTU21D;58487;53.474;49.470;2022-08-25T08:56:01;27.81;85.85
70867;HTU21D;58487;53.474;49.470;2022-08-25T09:01:28;28.13;80.97
70867;HTU21D;58487;53.474;49.470;2022-08-25T09:04:19;28.23;77.99
70867;HTU21D;58487;53.474;49.470;2022-08-25T09:06:54;28.32;81.22
70867;HTU21D;58487;53.474;49.470;2022-08-25T09:09:33;28.28;85.87
70867;HTU21D;58487;53.474;49.470;2022-08-25T09:18:10;28.85;73.87
70867;HTU21D;58487;53.474;49.470;2022-08-25T09:26:28;29.66;72.96
70867;HTU21D;58487;53.474;49.470;2022-08-25T09:29:13;29.87;71.71
70867;HTU21D;58487;53.474;49.470;2022-08-25T09:31:46;30.05;73.61
70867;HTU21D;58487;53.474;49.470;2022-08-25T09:34:21;30.38;72.69
70867;HTU21D;58487;53.474;49.470;2022-08-25T09:36:53;30.76;71.87
70867;HTU21D;58487;53.474;49.470;2022-08-25T09:39:24;30.84;73.76
70867;HTU21D;58487;53.474;49.470;2022-08-25T09:41:57;31.09;67.81
70867;HTU21D;58487;53.474;49.470;2022-08-25T09:44:40;31.21;71.16
70867;HTU21D;58487;53.474;49.470;2022-08-25T09:49:50;31.68;67.24
70867;HTU21D;58487;53.474;49.470;2022-08-25T09:52:59;31.95;72.67
70867;HTU21D;58487;53.474;49.470;2022-08-25T09:55:30;31.88;70.64
70867;HTU21D;58487;53.474;49.470;2022-08-25T09:58:13;31.84;73.82
70867;HTU21D;58487;53.474;49.470;2022-08-25T10:01:00;31.83;69.12
70867;HTU21D;58487;53.474;49.470;2022-08-25T10:03:33;32.20;71.04
70867;HTU21D;58487;53.474;49.470;2022-08-25T10:06:11;32.41;74.15
70867;HTU21D;58487;53.474;49.470;2022-08-25T10:11:40;32.24;74.12
70867;HTU21D;58487;53.474;49.470;2022-08-25T10:16:50;32.08;76.07
70867;HTU21D;58487;53.474;49.470;2022-08-25T10:19:27;32.10;75.73
70867;HTU21D;58487;53.474;49.470;2022-08-25T10:22:06;32.27;79.39
70867;HTU21D;58487;53.474;49.470;2022-08-25T10:24:39;32.55;75.85
70867;HTU21D;58487;53.474;49.470;2022-08-25T10:27:37;32.72;72.35
70867;HTU21D;58487;53.474;49.470;2022-08-25T10:38:56;32.83;66.93
70867;HTU21D;58487;53.474;49.470;2022-08-25T10:41:48;33.18;69.19
70867;HTU21D;58487;53.474;49.470;2022-08-25T10:44:51;33.08;64.70
70867;HTU21D;58487;53.474;49.470;2022-08-25T10:59:50;33.26;69.61
70867;HTU21D;58487;53.474;49.470;2022-08-25T11:07:57;33.17;64.14
70867;HTU21D;58487;53.474;49.470;2022-08-25T11:10:53;33.41;68.17
70867;HTU21D;58487;53.474;49.470;2022-08-25T11:16:20;33.82;70.81
70867;HTU21D;58487;53.474;49.470;2022-08-25T11:25:29;34.68;63.01
70867;HTU21D;58487;53.474;49.470;2022-08-25T11:31:03;34.37;61.81
70867;HTU21D;58487;53.474;49.470;2022-08-25T11:33:35;34.02;64.73
70867;HTU21D;58487;53.474;49.470;2022-08-25T11:36:32;34.41;72.83
70867;HTU21D;58487;53.474;49.470;2022-08-25T11:46:17;34.89;67.83
70867;HTU21D;58487;53.474;49.470;2022-08-25T11:48:49;34.88;67.71
70867;HTU21D;58487;53.474;49.470;2022-08-25T11:51:39;34.40;65.60
70867;HTU21D;58487;53.474;49.470;2022-08-25T11:54:21;34.33;66.07
70867;HTU21D;58487;53.474;49.470;2022-08-25T12:08:03;35.15;64.20
70867;HTU21D;58487;53.474;49.470;2022-08-25T12:11:02;35.38;64.53
70867;HTU21D;58487;53.474;49.470;2022-08-25T12:13:49;35.33;65.66
70867;HTU21D;58487;53.474;49.470;2022-08-25T12:30:22;36.16;59.94
70867;HTU21D;58487;53.474;49.470;2022-08-25T12:36:05;35.59;67.87
70867;HTU21D;58487;53.474;49.470;2022-08-25T12:38:45;35.62;66.92
70867;HTU21D;58487;53.474;49.470;2022-08-25T12:41:25;35.59;60.77
70867;HTU21D;58487;53.474;49.470;2022-08-25T12:49:42;35.01;63.47
70867;HTU21D;58487;53.474;49.470;2022-08-25T12:52:22;35.51;61.24
70867;HTU21D;58487;53.474;49.470;2022-08-25T12:54:58;35.97;59.46
70867;HTU21D;58487;53.474;49.470;2022-08-25T12:57:37;36.27;60.70
70867;HTU21D;58487;53.474;49.470;2022-08-25T13:05:42;35.90;60.28
70867;HTU21D;58487;53.474;49.470;2022-08-25T13:11:24;35.57;63.50
70867;HTU21D;58487;53.474;49.470;2022-08-25T13:16:54;35.63;66.55
70867;HTU21D;58487;53.474;49.470;2022-08-25T13:19:26;35.59;66.24
70867;HTU21D;58487;53.474;49.470;2022-08-25T13:22:00;35.52;68.55
70867;HTU21D;58487;53.474;49.470;2022-08-25T13:24:38;35.77;63.54
70867;HTU21D;58487;53.474;49.470;2022-08-25T13:27:20;36.09;63.66
70867;HTU21D;58487;53.474;49.470;2022-08-25T13:29:57;36.43;64.20
70867;HTU21D;58487;53.474;49.470;2022-08-25T13:32:35;36.74;62.62
70867;HTU21D;58487;53.474;49.470;2022-08-25T13:37:45;36.37;59.86
70867;HTU21D;58487;53.474;49.470;2022-08-25T13:40:28;36.49;57.80
70867;HTU21D;58487;53.474;49.470;2022-08-25T13:43:05;36.77;54.33
70867;HTU21D;58487;53.474;49.470;2022-08-25T13:45:46;36.45;58.87
70867;HTU21D;58487;53.474;49.470;2022-08-25T13:51:22;36.28;59.37
70867;HTU21D;58487;53.474;49.470;2022-08-25T13:53:57;36.00;59.36
70867;HTU21D;58487;53.474;49.470;2022-08-25T13:56:33;36.00;60.25
70867;HTU21D;58487;53.474;49.470;2022-08-25T13:59:17;36.14;60.51
70867;HTU21D;58487;53.474;49.470;2022-08-25T14:01:49;35.93;62.86
70867;HTU21D;58487;53.474;49.470;2022-08-25T14:07:24;35.07;66.47
70867;HTU21D;58487;53.474;49.470;2022-08-25T14:12:41;34.67;65.87
70867;HTU21D;58487;53.474;49.470;2022-08-25T14:18:08;34.19;69.56
70867;HTU21D;58487;53.474;49.470;2022-08-25T14:20:49;34.15;71.64
70867;HTU21D;58487;53.474;49.470;2022-08-25T14:23:24;33.96;69.94
70867;HTU21D;58487;53.474;49.470;2022-08-25T14:25:57;33.72;72.69
70867;HTU21D;58487;53.474;49.470;2022-08-25T14:28:29;33.29;78.46
70867;HTU21D;58487;53.474;49.470;2022-08-25T14:31:09;32.66;75.67
70867;HTU21D;58487;53.474;49.470;2022-08-25T14:33:53;31.92;78.44
70867;HTU21D;58487;53.474;49.470;2022-08-25T14:36:28;31.54;82.79
70867;HTU21D;58487;53.474;49.470;2022-08-25T14:38:59;31.11;80.98
70867;HTU21D;58487;53.474;49.470;2022-08-25T14:41:37;30.27;79.74
70867;HTU21D;58487;53.474;49.470;2022-08-25T14:44:12;30.06;78.79
70867;HTU21D;58487;53.474;49.470;2022-08-25T14:46:50;29.78;82.63
70867;HTU21D;58487;53.474;49.470;2022-08-25T14:49:28;29.80;81.68
70867;HTU21D;58487;53.474;49.470;2022-08-25T14:52:08;29.79;87.22
70867;HTU21D;58487;53.474;49.470;2022-08-25T14:54:40;29.58;81.39
70867;HTU21D;58487;53.474;49.470;2022-08-25T14:57:11;29.59;81.07
70867;HTU21D;58487;53.474;49.470;2022-08-25T14:59:43;29.54;83.74
70867;HTU21D;58487;53.474;49.470;2022-08-25T15:02:15;29.53;87.10
70867;HTU21D;58487;53.474;49.470;2022-08-25T15:04:54;29.33;83.31
70867;HTU21D;58487;53.474;49.470;2022-08-25T15:07:26;29.39;82.40
70867;HTU21D;58487;53.474;49.470;2022-08-25T15:10:17;29.26;81.52
70867;HTU21D;58487;53.474;49.470;2022-08-25T15:12:49;29.14;83.88
70867;HTU21D;58487;53.474;49.470;2022-08-25T15:15:21;28.99;83.51
70867;HTU21D;58487;53.474;49.470;2022-08-25T15:17:56;28.95;83.54
70867;HTU21D;58487;53.474;49.470;2022-08-25T15:20:28;28.92;84.00
70867;HTU21D;58487;53.474;49.470;2022-08-25T15:22:59;28.91;82.15
70867;HTU21D;58487;53.474;49.470;2022-08-25T15:25:31;28.91;84.43
70867;HTU21D;58487;53.474;49.470;2022-08-25T15:28:06;28.90;85.38
70867;HTU21D;58487;53.474;49.470;2022-08-25T15:30:38;28.75;88.68
70867;HTU21D;58487;53.474;49.470;2022-08-25T15:33:10;28.52;84.37
70867;HTU21D;58487;53.474;49.470;2022-08-25T15:35:41;28.42;84.31
70867;HTU21D;58487;53.474;49.470;2022-08-25T15:38:12;28.37;84.60
70867;HTU21D;58487;53.474;49.470;2022-08-25T15:40:44;28.35;78.01
70867;HTU21D;58487;53.474;49.470;2022-08-25T15:43:15;28.29;79.67
70867;HTU21D;58487;53.474;49.470;2022-08-25T15:45:47;28.26;86.45
70867;HTU21D;58487;53.474;49.470;2022-08-25T15:48:19;28.27;80.68
70867;HTU21D;58487;53.474;49.470;2022-08-25T15:50:54;28.23;86.12
70867;HTU21D;58487;53.474;49.470;2022-08-25T15:53:27;28.18;82.84
70867;HTU21D;58487;53.474;49.470;2022-08-25T15:55:59;28.13;79.15
70867;HTU21D;58487;53.474;49.470;2022-08-25T15:58:32;28.14;77.87
70867;HTU21D;58487;53.474;49.470;2022-08-25T16:01:04;28.08;79.11
70867;HTU21D;58487;53.474;49.470;2022-08-25T16:03:36;28.05;76.24
70867;HTU21D;58487;53.474;49.470;2022-08-25T16:06:08;28.02;78.17
70867;HTU21D;58487;53.474;49.470;2022-08-25T16:08:40;28.03;78.21
70867;HTU21D;58487;53.474;49.470;2022-08-25T16:11:18;27.96;77.93
70867;HTU21D;58487;53.474;49.470;2022-08-25T16:13:51;27.89;80.89
70867;HTU21D;58487;53.474;49.470;2022-08-25T16:16:24;27.71;79.37
70867;HTU21D;58487;53.474;49.470;2022-08-25T16:18:57;27.74;85.32
70867;HTU21D;58487;53.474;49.470;2022-08-25T16:21:32;27.69;81.01
70867;HTU21D;58487;53.474;49.470;2022-08-25T16:24:05;27.70;85.00
70867;HTU21D;58487;53.474;49.470;2022-08-25T16:26:37;27.74;83.13
70867;HTU21D;58487;53.474;49.470;2022-08-25T16:29:12;27.75;78.15
70867;HTU21D;58487;53.474;49.470;2022-08-25T16:31:45;27.72;75.01
70867;HTU21D;58487;53.474;49.470;2022-08-25T16:34:16;27.63;77.55
70867;HTU21D;58487;53.474;49.470;2022-08-25T16:36:48;27.64;86.76
70867;HTU21D;58487;53.474;49.470;2022-08-25T16:39:21;27.69;77.84
70867;HTU21D;58487;53.474;49.470;2022-08-25T16:41:52;27.69;75.11
70867;HTU21D;58487;53.474;49.470;2022-08-25T16:44:23;27.66;79.92
70867;HTU21D;58487;53.474;49.470;2022-08-25T16:46:54;27.61;76.33
70867;HTU21D;58487;53.474;49.470;2022-08-25T16:49:27;27.60;74.67
70867;HTU21D;58487;53.474;49.470;2022-08-25T16:51:58;27.57;80.81
70867;HTU21D;58487;53.474;49.470;2022-08-25T16:54:33;27.55;79.64
70867;HTU21D;58487;53.474;49.470;2022-08-25T16:57:48;27.46;79.68
70867;HTU21D;58487;53.474;49.470;2022-08-25T17:00:23;27.47;82.75
70867;HTU21D;58487;53.474;49.470;2022-08-25T17:02:56;27.49;80.99
70867;HTU21D;58487;53.474;49.470;2022-08-25T17:05:31;27.46;79.56
70867;HTU21D;58487;53.474;49.470;2022-08-25T17:08:03;27.42;80.62
70867;HTU21D;58487;53.474;49.470;2022-08-25T17:10:52;27.37;83.47
70867;HTU21D;58487;53.474;49.470;2022-08-25T17:13:24;27.44;80.65
70867;HTU21D;58487;53.474;49.470;2022-08-25T17:15:55;27.49;85.71
70867;HTU21D;58487;53.474;49.470;2022-08-25T17:18:30;27.49;84.49
70867;HTU21D;58487;53.474;49.470;2022-08-25T17:21:07;27.34;88.25
70867;HTU21D;58487;53.474;49.470;2022-08-25T17:23:41;26.99;94.69
70867;HTU21D;58487;53.474;49.470;2022-08-25T17:26:15;26.82;91.03
70867;HTU21D;58487;53.474;49.470;2022-08-25T17:28:47;27.09;85.29
70867;HTU21D;58487;53.474;49.470;2022-08-25T17:31:19;27.17;84.17
70867;HTU21D;58487;53.474;49.470;2022-08-25T17:33:50;26.77;90.88
70867;HTU21D;58487;53.474;49.470;2022-08-25T17:36:22;26.26;95.05
70867;HTU21D;58487;53.474;49.470;2022-08-25T17:38:54;25.99;94.35
70867;HTU21D;58487;53.474;49.470;2022-08-25T17:41:25;26.10;94.44
70867;HTU21D;58487;53.474;49.470;2022-08-25T17:43:57;26.24;104.78
70867;HTU21D;58487;53.474;49.470;2022-08-25T17:46:29;26.42;97.32
70867;HTU21D;58487;53.474;49.470;2022-08-25T17:49:00;26.63;93.54
70867;HTU21D;58487;53.474;49.470;2022-08-25T17:51:31;26.35;99.90
70867;HTU21D;58487;53.474;49.470;2022-08-25T17:54:03;26.15;99.38
70867;HTU21D;58487;53.474;49.470;2022-08-25T17:56:34;26.30;95.78
70867;HTU21D;58487;53.474;49.470;2022-08-25T17:59:07;26.22;99.09
70867;HTU21D;58487;53.474;49.470;2022-08-25T18:01:38;25.83;98.03
70867;HTU21D;58487;53.474;49.470;2022-08-25T18:04:10;25.65;98.35